createdAt,value
2023-03-17T00:00:03.341Z,6.27
2023-03-17T00:01:03.312Z,6.25
2023-03-17T00:02:03.320Z,6.25
2023-03-17T00:03:03.291Z,6.21
2023-03-17T00:04:03.328Z,6.22
2023-03-17T00:05:03.255Z,6.19
2023-03-17T00:06:03.244Z,6.15
2023-03-17T00:07:03.252Z,6.15
2023-03-17T00:08:03.223Z,6.14
2023-03-17T00:09:03.204Z,6.11
2023-03-17T00:10:03.193Z,6.11
2023-03-17T00:11:03.181Z,6.06
2023-03-17T00:12:03.176Z,6.08
2023-03-17T00:13:03.182Z,6.08
2023-03-17T00:14:03.164Z,6.15
2023-03-17T00:15:03.129Z,6.11
2023-03-17T00:16:03.165Z,6.11
2023-03-17T00:17:03.103Z,6.11
2023-03-17T00:18:03.102Z,6.11
2023-03-17T00:19:03.086Z,6.12
2023-03-17T00:20:03.062Z,6.14
2023-03-17T00:21:03.045Z,6.17
2023-03-17T00:22:03.046Z,6.17
2023-03-17T00:23:03.034Z,6.19
2023-03-17T00:24:03.010Z,6.27
2023-03-17T00:25:02.991Z,6.30
2023-03-17T00:26:02.989Z,6.30
2023-03-17T00:27:02.973Z,6.33
2023-03-17T00:28:02.979Z,6.33
2023-03-17T00:29:02.950Z,6.33
2023-03-17T00:30:02.952Z,6.38
2023-03-17T00:31:02.965Z,6.40
2023-03-17T00:32:02.906Z,6.41
2023-03-17T00:33:03.020Z,6.40
2023-03-17T00:34:02.888Z,6.37
2023-03-17T00:35:02.869Z,6.34
2023-03-17T00:36:02.872Z,6.30
2023-03-17T00:37:02.842Z,6.30
2023-03-17T00:38:02.839Z,6.30
2023-03-17T00:39:02.808Z,6.30
2023-03-17T00:40:02.818Z,6.30
2023-03-17T00:41:02.790Z,6.27
2023-03-17T00:42:02.775Z,6.22
2023-03-17T00:43:02.770Z,6.27
2023-03-17T00:44:02.752Z,6.25
2023-03-17T00:45:02.733Z,6.25
2023-03-17T00:46:02.723Z,6.22
2023-03-17T00:47:02.734Z,6.21
2023-03-17T00:48:02.702Z,6.19
2023-03-17T00:49:02.696Z,6.18
2023-03-17T00:50:02.663Z,6.17
2023-03-17T00:51:02.645Z,6.12
2023-03-17T00:52:02.656Z,6.08
2023-03-17T00:53:02.633Z,6.04
2023-03-17T00:54:02.611Z,6.00
2023-03-17T00:55:02.591Z,5.97
2023-03-17T00:56:02.589Z,5.97
2023-03-17T00:57:02.574Z,5.90
2023-03-17T00:58:02.571Z,5.86
2023-03-17T00:59:02.552Z,5.83
2023-03-17T01:00:02.540Z,5.79
2023-03-17T01:01:10.087Z,5.75
2023-03-17T01:02:10.054Z,5.71
2023-03-17T01:03:11.210Z,5.68
2023-03-17T01:04:09.985Z,5.65
2023-03-17T01:05:09.975Z,5.61
2023-03-17T01:06:09.951Z,5.58
2023-03-17T01:07:10.005Z,5.56
2023-03-17T01:08:02.432Z,5.57
2023-03-17T01:09:09.921Z,5.56
2023-03-17T01:10:02.393Z,5.57
2023-03-17T01:11:02.392Z,5.56
2023-03-17T01:12:02.385Z,5.58
2023-03-17T01:13:02.382Z,5.58
2023-03-17T01:14:02.349Z,5.56
2023-03-17T01:15:02.395Z,5.56
2023-03-17T01:16:02.364Z,5.54
2023-03-17T01:17:02.318Z,5.54
2023-03-17T01:18:02.312Z,5.51
2023-03-17T01:19:02.378Z,5.54
2023-03-17T01:20:02.269Z,5.46
2023-03-17T01:21:02.272Z,5.42
2023-03-17T01:22:02.251Z,5.42
2023-03-17T01:23:02.254Z,5.42
2023-03-17T01:24:02.219Z,5.43
2023-03-17T01:25:02.212Z,5.48
2023-03-17T01:26:02.213Z,5.48
2023-03-17T01:27:02.194Z,5.49
2023-03-17T01:28:02.186Z,5.46
2023-03-17T01:29:02.163Z,5.43
2023-03-17T01:30:02.140Z,5.42
2023-03-17T01:31:02.138Z,5.39
2023-03-17T01:32:02.119Z,5.36
2023-03-17T01:33:02.185Z,5.36
2023-03-17T01:34:02.097Z,5.30
2023-03-17T01:35:02.088Z,5.28
2023-03-17T01:36:02.085Z,5.28
2023-03-17T01:37:02.057Z,5.25
2023-03-17T01:38:02.057Z,5.27
2023-03-17T01:39:02.030Z,5.25
2023-03-17T01:40:02.020Z,5.25
2023-03-17T01:41:02.013Z,5.27
2023-03-17T01:42:01.992Z,5.30
2023-03-17T01:43:01.997Z,5.31
2023-03-17T01:44:01.967Z,5.39
2023-03-17T01:45:01.967Z,5.38
2023-03-17T01:46:01.991Z,5.39
2023-03-17T01:47:01.925Z,5.36
2023-03-17T01:48:01.931Z,5.31
2023-03-17T01:49:01.909Z,5.30
2023-03-17T01:50:01.889Z,5.27
2023-03-17T01:51:01.882Z,5.25
2023-03-17T01:52:01.869Z,5.24
2023-03-17T01:53:01.865Z,5.24
2023-03-17T01:54:01.838Z,5.24
2023-03-17T01:55:01.826Z,5.21
2023-03-17T01:56:01.808Z,5.22
2023-03-17T01:57:01.809Z,5.22
2023-03-17T01:58:01.804Z,5.25
2023-03-17T01:59:01.774Z,5.24
2023-03-17T02:00:01.755Z,5.27
2023-03-17T02:01:01.837Z,5.24
2023-03-17T02:02:01.733Z,5.28
2023-03-17T02:03:01.734Z,5.35
2023-03-17T02:04:01.715Z,5.36
2023-03-17T02:05:01.705Z,5.38
2023-03-17T02:06:01.697Z,5.35
2023-03-17T02:07:01.672Z,5.35
2023-03-17T02:08:01.663Z,5.33
2023-03-17T02:09:01.682Z,5.28
2023-03-17T02:10:01.632Z,5.25
2023-03-17T02:11:01.622Z,5.21
2023-03-17T02:12:01.612Z,5.18
2023-03-17T02:13:01.607Z,5.13
2023-03-17T02:14:01.574Z,5.07
2023-03-17T02:15:01.570Z,5.03
2023-03-17T02:16:01.555Z,5.02
2023-03-17T02:17:01.601Z,4.97
2023-03-17T02:18:01.540Z,4.94
2023-03-17T02:19:01.527Z,4.89
2023-03-17T02:20:01.504Z,4.86
2023-03-17T02:21:01.493Z,4.82
2023-03-17T02:22:01.476Z,4.73
2023-03-17T02:23:01.482Z,4.70
2023-03-17T02:24:01.449Z,4.69
2023-03-17T02:25:01.440Z,4.66
2023-03-17T02:26:01.439Z,4.67
2023-03-17T02:27:01.419Z,4.63
2023-03-17T02:28:01.409Z,4.52
2023-03-17T02:29:01.389Z,4.51
2023-03-17T02:30:01.380Z,4.48
2023-03-17T02:31:01.399Z,4.45
2023-03-17T02:32:01.351Z,4.45
2023-03-17T02:33:01.396Z,4.37
2023-03-17T02:34:01.319Z,4.32
2023-03-17T02:35:01.311Z,4.27
2023-03-17T02:36:01.341Z,4.26
2023-03-17T02:37:01.293Z,4.24
2023-03-17T02:38:01.280Z,4.22
2023-03-17T02:39:01.260Z,4.22
2023-03-17T02:40:01.283Z,4.20
2023-03-17T02:41:01.248Z,4.20
2023-03-17T02:42:01.239Z,4.18
2023-03-17T02:43:01.232Z,4.16
2023-03-17T02:44:01.207Z,4.16
2023-03-17T02:45:01.188Z,4.15
2023-03-17T02:46:01.283Z,4.15
2023-03-17T02:47:01.165Z,4.11
2023-03-17T02:48:01.150Z,4.04
2023-03-17T02:49:01.140Z,3.97
2023-03-17T02:50:01.127Z,3.97
2023-03-17T02:51:01.118Z,3.91
2023-03-17T02:52:01.093Z,3.88
2023-03-17T02:53:01.236Z,3.86
2023-03-17T02:54:01.072Z,3.84
2023-03-17T02:55:01.059Z,3.79
2023-03-17T02:56:01.040Z,3.76
2023-03-17T02:57:01.050Z,3.76
2023-03-17T02:58:01.009Z,3.75
2023-03-17T02:59:01.018Z,3.73
2023-03-17T03:00:00.989Z,3.75
2023-03-17T03:01:01.049Z,3.75
2023-03-17T03:02:00.983Z,3.75
2023-03-17T03:03:00.958Z,3.75
2023-03-17T03:04:00.950Z,3.72
2023-03-17T03:05:00.928Z,3.70
2023-03-17T03:06:03.002Z,3.69
2023-03-17T03:07:00.907Z,3.66
2023-03-17T03:08:00.888Z,3.69
2023-03-17T03:09:00.891Z,3.69
2023-03-17T03:10:00.859Z,3.66
2023-03-17T03:11:00.857Z,3.66
2023-03-17T03:12:00.839Z,3.61
2023-03-17T03:13:00.829Z,3.58
2023-03-17T03:14:00.818Z,3.58
2023-03-17T03:15:00.794Z,3.55
2023-03-17T03:16:00.845Z,3.51
2023-03-17T03:17:00.774Z,3.48
2023-03-17T03:18:00.756Z,3.45
2023-03-17T03:19:00.768Z,3.43
2023-03-17T03:20:00.735Z,3.40
2023-03-17T03:21:00.727Z,3.39
2023-03-17T03:22:00.711Z,3.33
2023-03-17T03:23:00.707Z,3.31
2023-03-17T03:24:00.695Z,3.32
2023-03-17T03:25:00.680Z,3.32
2023-03-17T03:26:00.668Z,3.29
2023-03-17T03:27:00.657Z,3.31
2023-03-17T03:28:00.638Z,3.29
2023-03-17T03:29:00.642Z,3.29
2023-03-17T03:30:00.611Z,3.24
2023-03-17T03:31:00.627Z,3.23
2023-03-17T03:32:00.606Z,3.17
2023-03-17T03:33:00.607Z,3.14
2023-03-17T03:34:00.564Z,3.14
2023-03-17T03:35:00.551Z,3.13
2023-03-17T03:36:01.027Z,3.15
2023-03-17T03:37:00.537Z,3.15
2023-03-17T03:38:00.552Z,3.14
2023-03-17T03:39:01.081Z,3.18
2023-03-17T03:40:00.987Z,3.21
2023-03-17T03:41:00.900Z,3.23
2023-03-17T03:42:00.454Z,3.23
2023-03-17T03:43:02.392Z,3.20
2023-03-17T03:44:01.430Z,3.17
2023-03-17T03:45:00.410Z,3.17
2023-03-17T03:46:00.396Z,3.20
2023-03-17T03:47:00.390Z,3.23
2023-03-17T03:48:00.368Z,3.26
2023-03-17T03:49:00.377Z,3.26
2023-03-17T03:50:00.337Z,3.26
2023-03-17T03:51:00.346Z,3.26
2023-03-17T03:52:00.318Z,3.24
2023-03-17T03:53:00.332Z,3.23
2023-03-17T03:54:00.321Z,3.23
2023-03-17T03:55:00.300Z,3.24
2023-03-17T03:56:00.279Z,3.26
2023-03-17T03:57:00.254Z,3.29
2023-03-17T03:58:00.241Z,3.31
2023-03-17T03:59:00.241Z,3.33
2023-03-17T04:00:00.201Z,3.33
2023-03-17T04:01:00.203Z,3.33
2023-03-17T04:02:00.189Z,3.32
2023-03-17T04:03:00.257Z,3.31
2023-03-17T04:04:00.222Z,3.29
2023-03-17T04:05:00.268Z,3.26
2023-03-17T04:06:00.144Z,3.21
2023-03-17T04:07:00.131Z,3.17
2023-03-17T04:08:00.128Z,3.17
2023-03-17T04:09:00.109Z,3.13
2023-03-17T04:10:00.134Z,3.15
2023-03-17T04:11:00.117Z,3.08
2023-03-17T04:12:00.051Z,3.06
2023-03-17T04:13:00.091Z,3.02
2023-03-17T04:14:00.041Z,2.99
2023-03-17T04:15:00.021Z,2.96
2023-03-17T04:16:00.040Z,2.92
2023-03-17T04:17:00.007Z,2.92
2023-03-17T04:17:59.998Z,2.93
2023-03-17T04:19:00.233Z,2.93
2023-03-17T04:19:59.956Z,2.89
2023-03-17T04:20:59.939Z,2.87
2023-03-17T04:21:59.929Z,2.87
2023-03-17T04:22:59.916Z,2.84
2023-03-17T04:23:59.920Z,2.81
2023-03-17T04:24:59.897Z,2.78
2023-03-17T04:25:59.868Z,2.75
2023-03-17T04:26:59.866Z,2.77
2023-03-17T04:27:59.856Z,2.71
2023-03-17T04:28:59.855Z,2.69
2023-03-17T04:29:59.819Z,2.64
2023-03-17T04:30:59.817Z,2.61
2023-03-17T04:31:59.797Z,2.63
2023-03-17T04:32:59.829Z,2.59
2023-03-17T04:33:59.787Z,2.56
2023-03-17T04:34:59.754Z,2.52
2023-03-17T04:35:59.807Z,2.48
2023-03-17T04:36:59.736Z,2.48
2023-03-17T04:37:59.719Z,2.43
2023-03-17T04:38:59.753Z,2.42
2023-03-17T04:39:59.706Z,2.43
2023-03-17T04:40:59.680Z,2.42
2023-03-17T04:41:59.665Z,2.42
2023-03-17T04:43:00.896Z,2.41
2023-03-17T04:43:59.663Z,2.38
2023-03-17T04:44:59.631Z,2.41
2023-03-17T04:45:59.662Z,2.45
2023-03-17T04:46:59.601Z,2.48
2023-03-17T04:47:59.584Z,2.52
2023-03-17T04:48:59.595Z,2.52
2023-03-17T04:49:59.571Z,2.48
2023-03-17T04:50:59.551Z,2.52
2023-03-17T04:51:59.535Z,2.53
2023-03-17T04:52:59.524Z,2.61
2023-03-17T04:53:59.520Z,2.69
2023-03-17T04:54:59.491Z,2.72
2023-03-17T04:55:59.477Z,2.75
2023-03-17T04:56:59.481Z,2.74
2023-03-17T04:57:59.451Z,2.74
2023-03-17T04:58:59.458Z,2.66
2023-03-17T04:59:59.421Z,2.66
2023-03-17T05:00:59.565Z,2.66
2023-03-17T05:01:59.424Z,2.64
2023-03-17T05:02:59.388Z,2.61
2023-03-17T05:03:59.389Z,2.57
2023-03-17T05:04:59.367Z,2.53
2023-03-17T05:05:59.399Z,2.46
2023-03-17T05:06:59.348Z,2.49
2023-03-17T05:07:59.348Z,2.38
2023-03-17T05:08:59.329Z,2.34
2023-03-17T05:09:59.299Z,2.25
2023-03-17T05:10:59.305Z,2.17
2023-03-17T05:11:59.278Z,2.12
2023-03-17T05:12:59.261Z,2.09
2023-03-17T05:13:59.259Z,2.10
2023-03-17T05:14:59.237Z,2.09
2023-03-17T05:15:59.223Z,2.06
2023-03-17T05:16:59.201Z,2.05
2023-03-17T05:17:59.200Z,2.05
2023-03-17T05:18:59.196Z,2.05
2023-03-17T05:19:59.169Z,2.00
2023-03-17T05:20:59.165Z,2.03
2023-03-17T05:21:59.159Z,2.00
2023-03-17T05:22:59.137Z,2.03
2023-03-17T05:23:59.122Z,2.02
2023-03-17T05:24:59.126Z,2.03
2023-03-17T05:25:59.110Z,1.99
2023-03-17T05:26:59.076Z,1.98
2023-03-17T05:27:59.073Z,1.91
2023-03-17T05:28:59.043Z,1.86
2023-03-17T05:29:59.050Z,1.79
2023-03-17T05:30:59.110Z,1.73
2023-03-17T05:31:59.016Z,1.72
2023-03-17T05:32:59.017Z,1.66
2023-03-17T05:33:58.991Z,1.68
2023-03-17T05:34:58.985Z,1.65
2023-03-17T05:35:58.996Z,1.62
2023-03-17T05:36:58.940Z,1.60
2023-03-17T05:37:58.934Z,1.58
2023-03-17T05:38:58.911Z,1.54
2023-03-17T05:39:58.926Z,1.55
2023-03-17T05:40:58.890Z,1.51
2023-03-17T05:41:58.881Z,1.50
2023-03-17T05:42:58.867Z,1.50
2023-03-17T05:43:58.859Z,1.45
2023-03-17T05:44:58.854Z,1.44
2023-03-17T05:45:58.854Z,1.44
2023-03-17T05:46:58.812Z,1.42
2023-03-17T05:47:58.800Z,1.41
2023-03-17T05:48:58.780Z,1.36
2023-03-17T05:49:58.788Z,1.37
2023-03-17T05:50:58.759Z,1.36
2023-03-17T05:51:58.748Z,1.34
2023-03-17T05:52:58.735Z,1.33
2023-03-17T05:53:58.722Z,1.32
2023-03-17T05:54:58.722Z,1.30
2023-03-17T05:55:58.703Z,1.36
2023-03-17T05:56:58.678Z,1.42
2023-03-17T05:57:58.715Z,1.45
2023-03-17T05:58:58.655Z,1.50
2023-03-17T05:59:58.662Z,1.48
2023-03-17T06:00:58.628Z,1.51
2023-03-17T06:01:58.696Z,1.51
2023-03-17T06:02:58.614Z,1.55
2023-03-17T06:03:58.597Z,1.54
2023-03-17T06:04:58.594Z,1.63
2023-03-17T06:05:58.591Z,1.65
2023-03-17T06:06:58.552Z,1.68
2023-03-17T06:07:58.536Z,1.69
2023-03-17T06:08:58.540Z,1.70
2023-03-17T06:09:58.530Z,1.76
2023-03-17T06:10:58.499Z,1.83
2023-03-17T06:11:58.497Z,1.87
2023-03-17T06:12:58.479Z,1.91
2023-03-17T06:13:58.473Z,1.95
2023-03-17T06:14:58.455Z,2.02
2023-03-17T06:15:58.456Z,2.06
2023-03-17T06:16:58.435Z,2.12
2023-03-17T06:17:58.413Z,2.17
2023-03-17T06:18:58.396Z,2.27
2023-03-17T06:19:58.397Z,2.36
2023-03-17T06:20:58.368Z,2.48
2023-03-17T06:21:58.354Z,2.56
2023-03-17T06:23:04.431Z,2.63
2023-03-17T06:23:59.334Z,2.66
2023-03-17T06:24:58.325Z,2.87
2023-03-17T06:25:58.304Z,2.95
2023-03-17T06:26:58.296Z,3.02
2023-03-17T06:27:58.302Z,3.11
2023-03-17T06:28:58.264Z,3.23
2023-03-17T06:29:58.292Z,3.36
2023-03-17T06:30:58.322Z,3.48
2023-03-17T06:32:09.282Z,3.58
2023-03-17T06:32:59.288Z,3.73
2023-03-17T06:33:58.212Z,3.86
2023-03-17T06:34:58.200Z,3.94
2023-03-17T06:35:58.200Z,4.05
2023-03-17T06:36:58.176Z,4.20
2023-03-17T06:37:58.187Z,4.26
2023-03-17T06:38:58.130Z,4.34
2023-03-17T06:39:58.139Z,4.45
2023-03-17T06:40:58.129Z,4.51
2023-03-17T06:41:58.111Z,4.58
2023-03-17T06:42:58.086Z,4.63
2023-03-17T06:43:58.076Z,4.70
2023-03-17T06:44:58.069Z,4.82
2023-03-17T06:45:58.050Z,4.91
2023-03-17T06:46:58.043Z,4.97
2023-03-17T06:47:58.046Z,5.03
2023-03-17T06:48:58.008Z,5.10
2023-03-17T06:49:58.015Z,5.17
2023-03-17T06:50:57.986Z,5.22
2023-03-17T06:51:57.969Z,5.30
2023-03-17T06:52:57.949Z,5.31
2023-03-17T06:53:57.946Z,5.40
2023-03-17T06:54:57.945Z,5.60
2023-03-17T06:55:57.919Z,5.58
2023-03-17T06:56:57.897Z,5.68
2023-03-17T06:57:57.895Z,5.74
2023-03-17T06:58:57.884Z,6.01
2023-03-17T06:59:57.878Z,6.15
2023-03-17T07:00:57.853Z,6.17
2023-03-17T07:01:57.881Z,6.43
2023-03-17T07:02:57.897Z,6.54
2023-03-17T07:03:57.827Z,6.64
2023-03-17T07:04:57.865Z,6.76
2023-03-17T07:05:57.786Z,6.76
2023-03-17T07:06:57.773Z,6.84
2023-03-17T07:07:57.765Z,6.88
2023-03-17T07:08:57.745Z,7.03
2023-03-17T07:09:57.764Z,7.13
2023-03-17T07:10:57.741Z,7.20
2023-03-17T07:11:57.714Z,7.27
2023-03-17T07:12:57.700Z,7.30
2023-03-17T07:13:57.691Z,7.37
2023-03-17T07:14:57.695Z,7.45
2023-03-17T07:16:00.439Z,7.53
2023-03-17T07:16:57.649Z,7.63
2023-03-17T07:17:57.635Z,7.75
2023-03-17T07:18:57.651Z,7.82
2023-03-17T07:19:57.637Z,7.89
2023-03-17T07:20:57.599Z,7.93
2023-03-17T07:21:57.579Z,8.04
2023-03-17T07:22:57.581Z,8.12
2023-03-17T07:23:57.587Z,8.10
2023-03-17T07:24:57.569Z,8.19
2023-03-17T07:25:57.522Z,8.20
2023-03-17T07:26:57.510Z,8.34
2023-03-17T07:27:57.501Z,8.34
2023-03-17T07:28:57.491Z,8.34
2023-03-17T07:29:57.677Z,8.47
2023-03-17T07:30:57.462Z,8.55
2023-03-17T07:31:57.462Z,8.56
2023-03-17T07:32:57.486Z,8.70
2023-03-17T07:33:57.461Z,8.81
2023-03-17T07:34:57.453Z,8.89
2023-03-17T07:35:57.454Z,8.96
2023-03-17T07:36:57.408Z,9.10
2023-03-17T07:37:57.388Z,9.23
2023-03-17T07:38:57.364Z,9.20
2023-03-17T07:39:57.395Z,9.20
2023-03-17T07:40:57.357Z,9.24
2023-03-17T07:41:57.335Z,9.24
2023-03-17T07:42:57.302Z,9.24
2023-03-17T07:43:57.323Z,9.23
2023-03-17T07:44:57.293Z,9.21
2023-03-17T07:45:57.277Z,9.29
2023-03-17T07:46:57.261Z,9.35
2023-03-17T07:47:57.237Z,9.48
2023-03-17T07:48:57.229Z,9.58
2023-03-17T07:49:57.221Z,9.56
2023-03-17T07:50:57.198Z,9.53
2023-03-17T07:51:57.180Z,9.48
2023-03-17T07:52:57.170Z,9.54
2023-03-17T07:53:57.156Z,9.66
2023-03-17T07:54:57.146Z,9.79
2023-03-17T07:55:57.126Z,9.86
2023-03-17T07:56:57.110Z,9.89
2023-03-17T07:57:57.145Z,9.87
2023-03-17T07:58:57.080Z,9.99
2023-03-17T07:59:57.087Z,10.08
2023-03-17T08:00:57.052Z,10.23
2023-03-17T08:01:57.069Z,10.29
2023-03-17T08:03:09.439Z,10.30
2023-03-17T08:03:58.132Z,10.33
2023-03-17T08:04:57.034Z,10.25
2023-03-17T08:05:56.994Z,10.22
2023-03-17T08:06:56.988Z,10.26
2023-03-17T08:07:56.967Z,10.38
2023-03-17T08:08:56.988Z,10.40
2023-03-17T08:09:56.947Z,10.36
2023-03-17T08:10:56.914Z,10.34
2023-03-17T08:11:56.929Z,10.34
2023-03-17T08:12:56.915Z,10.34
2023-03-17T08:13:56.881Z,10.38
2023-03-17T08:14:56.875Z,10.42
2023-03-17T08:15:56.868Z,10.47
2023-03-17T08:16:56.972Z,10.52
2023-03-17T08:17:56.835Z,10.52
2023-03-17T08:18:56.847Z,10.60
2023-03-17T08:19:56.822Z,10.71
2023-03-17T08:20:56.802Z,10.79
2023-03-17T08:21:56.801Z,10.79
2023-03-17T08:22:56.792Z,10.74
2023-03-17T08:23:56.776Z,10.76
2023-03-17T08:24:56.760Z,10.82
2023-03-17T08:25:56.764Z,10.88
2023-03-17T08:26:57.636Z,11.03
2023-03-17T08:27:56.697Z,11.07
2023-03-17T08:28:56.687Z,11.18
2023-03-17T08:29:56.675Z,11.19
2023-03-17T08:30:56.686Z,11.36
2023-03-17T08:31:56.902Z,11.43
2023-03-17T08:32:56.665Z,11.52
2023-03-17T08:33:56.635Z,11.58
2023-03-17T08:34:56.599Z,11.64
2023-03-17T08:35:56.636Z,11.73
2023-03-17T08:36:56.590Z,11.78
2023-03-17T08:37:56.570Z,11.75
2023-03-17T08:38:56.548Z,11.79
2023-03-17T08:39:56.544Z,11.78
2023-03-17T08:40:56.546Z,11.76
2023-03-17T08:41:56.515Z,11.73
2023-03-17T08:42:56.493Z,11.78
2023-03-17T08:43:56.473Z,11.82
2023-03-17T08:45:03.982Z,11.94
2023-03-17T08:45:56.508Z,11.95
2023-03-17T08:46:56.438Z,11.88
2023-03-17T08:47:56.435Z,11.85
2023-03-17T08:48:56.504Z,12.09
2023-03-17T08:49:56.407Z,12.14
2023-03-17T08:50:56.407Z,12.19
2023-03-17T08:51:56.393Z,12.23
2023-03-17T08:52:56.366Z,12.28
2023-03-17T08:53:56.358Z,12.28
2023-03-17T08:54:56.335Z,12.34
2023-03-17T08:55:56.344Z,12.56
2023-03-17T08:56:56.352Z,12.75
2023-03-17T08:57:56.305Z,12.82
2023-03-17T08:58:56.286Z,13.01
2023-03-17T08:59:56.277Z,13.11
2023-03-17T09:00:56.267Z,13.20
2023-03-17T09:01:56.343Z,13.15
2023-03-17T09:02:56.342Z,13.25
2023-03-17T09:03:56.224Z,13.38
2023-03-17T09:04:56.206Z,13.49
2023-03-17T09:05:56.208Z,13.38
2023-03-17T09:07:03.336Z,13.25
2023-03-17T09:07:57.186Z,13.12
2023-03-17T09:08:56.149Z,13.20
2023-03-17T09:09:56.179Z,13.22
2023-03-17T09:10:56.134Z,13.28
2023-03-17T09:11:56.118Z,13.28
2023-03-17T09:12:56.096Z,13.36
2023-03-17T09:13:56.104Z,13.45
2023-03-17T09:14:56.072Z,13.60
2023-03-17T09:15:56.153Z,13.70
2023-03-17T09:16:56.047Z,13.79
2023-03-17T09:17:56.035Z,13.77
2023-03-17T09:18:56.019Z,13.79
2023-03-17T09:19:56.006Z,13.91
2023-03-17T09:20:56.006Z,13.95
2023-03-17T09:21:55.984Z,13.81
2023-03-17T09:22:55.964Z,13.88
2023-03-17T09:23:55.962Z,14.00
2023-03-17T09:24:55.945Z,14.02
2023-03-17T09:25:55.984Z,14.14
2023-03-17T09:26:55.925Z,14.03
2023-03-17T09:27:55.894Z,13.99
2023-03-17T09:28:55.884Z,14.20
2023-03-17T09:29:55.865Z,14.28
2023-03-17T09:30:55.907Z,14.21
2023-03-17T09:31:55.876Z,14.25
2023-03-17T09:32:55.875Z,14.20
2023-03-17T09:33:55.811Z,14.29
2023-03-17T09:34:55.812Z,14.33
2023-03-17T09:35:55.856Z,14.37
2023-03-17T09:36:55.825Z,14.40
2023-03-17T09:37:55.760Z,14.47
2023-03-17T09:38:55.743Z,14.50
2023-03-17T09:39:55.772Z,14.52
2023-03-17T09:40:55.730Z,14.52
2023-03-17T09:41:55.702Z,14.54
2023-03-17T09:42:55.702Z,14.58
2023-03-17T09:43:55.688Z,14.60
2023-03-17T09:44:55.723Z,14.68
2023-03-17T09:45:55.662Z,14.65
2023-03-17T09:46:55.672Z,14.69
2023-03-17T09:47:55.622Z,14.69
2023-03-17T09:48:55.622Z,14.65
2023-03-17T09:49:55.620Z,14.69
2023-03-17T09:50:55.625Z,14.72
2023-03-17T09:51:55.573Z,14.73
2023-03-17T09:52:55.570Z,14.84
2023-03-17T09:53:55.543Z,14.86
2023-03-17T09:54:55.541Z,14.86
2023-03-17T09:55:55.548Z,14.89
2023-03-17T09:56:55.502Z,15.02
2023-03-17T09:57:55.492Z,14.94
2023-03-17T09:58:55.482Z,14.95
2023-03-17T09:59:55.462Z,14.96
2023-03-17T10:00:55.491Z,15.03
2023-03-17T10:01:55.542Z,15.20
2023-03-17T10:02:55.423Z,15.28
2023-03-17T10:03:55.410Z,15.29
2023-03-17T10:04:55.442Z,15.34
2023-03-17T10:05:55.392Z,15.36
2023-03-17T10:06:55.375Z,15.43
2023-03-17T10:07:55.361Z,15.35
2023-03-17T10:08:55.354Z,15.35
2023-03-17T10:09:55.342Z,15.43
2023-03-17T10:10:55.349Z,15.47
2023-03-17T10:11:55.302Z,15.51
2023-03-17T10:12:55.303Z,15.57
2023-03-17T10:13:55.282Z,15.44
2023-03-17T10:14:55.298Z,15.44
2023-03-17T10:15:55.286Z,15.56
2023-03-17T10:16:55.242Z,15.76
2023-03-17T10:17:55.221Z,15.84
2023-03-17T10:18:55.214Z,15.92
2023-03-17T10:19:55.195Z,16.11
2023-03-17T10:20:55.206Z,16.23
2023-03-17T10:21:55.177Z,16.31
2023-03-17T10:22:55.163Z,16.43
2023-03-17T10:23:55.142Z,16.48
2023-03-17T10:24:55.141Z,16.60
2023-03-17T10:25:55.126Z,16.66
2023-03-17T10:26:55.113Z,16.71
2023-03-17T10:27:55.094Z,16.79
2023-03-17T10:28:55.087Z,16.75
2023-03-17T10:29:55.063Z,16.76
2023-03-17T10:30:55.070Z,16.68
2023-03-17T10:31:57.778Z,16.64
2023-03-17T10:32:55.063Z,16.66
2023-03-17T10:33:55.004Z,16.61
2023-03-17T10:34:55.003Z,16.61
2023-03-17T10:35:55.025Z,16.60
2023-03-17T10:36:54.974Z,16.60
2023-03-17T10:38:08.046Z,16.61
2023-03-17T10:38:55.952Z,16.61
2023-03-17T10:39:54.931Z,16.68
2023-03-17T10:40:54.932Z,16.73
2023-03-17T10:41:54.902Z,16.83
2023-03-17T10:42:54.894Z,16.96
2023-03-17T10:43:54.872Z,16.96
2023-03-17T10:44:54.872Z,16.94
2023-03-17T10:45:54.862Z,16.94
2023-03-17T10:46:54.911Z,16.94
2023-03-17T10:47:54.822Z,16.97
2023-03-17T10:48:54.818Z,16.97
2023-03-17T10:49:54.802Z,17.01
2023-03-17T10:50:54.801Z,17.01
2023-03-17T10:51:54.772Z,17.01
2023-03-17T10:52:54.779Z,17.08
2023-03-17T10:53:54.743Z,17.07
2023-03-17T10:54:54.739Z,17.11
2023-03-17T10:55:54.739Z,17.11
2023-03-17T10:57:02.215Z,17.16
2023-03-17T10:58:02.209Z,17.14
2023-03-17T10:59:02.184Z,17.06
2023-03-17T11:00:02.176Z,17.04
2023-03-17T11:01:03.432Z,17.14
2023-03-17T11:02:02.165Z,17.00
2023-03-17T11:03:02.140Z,17.03
2023-03-17T11:03:54.669Z,17.04
2023-03-17T11:04:54.602Z,17.04
2023-03-17T11:05:54.592Z,16.98
2023-03-17T11:06:54.573Z,17.01
2023-03-17T11:07:54.563Z,16.97
2023-03-17T11:08:54.554Z,17.08
2023-03-17T11:09:54.539Z,17.16
2023-03-17T11:10:54.534Z,16.91
2023-03-17T11:11:54.504Z,16.93
2023-03-17T11:12:54.508Z,16.79
2023-03-17T11:13:54.473Z,16.85
2023-03-17T11:14:54.474Z,16.89
2023-03-17T11:15:54.475Z,16.81
2023-03-17T11:16:54.446Z,16.71
2023-03-17T11:17:54.424Z,16.70
2023-03-17T11:18:54.427Z,16.75
2023-03-17T11:19:54.411Z,16.89
2023-03-17T11:20:54.434Z,17.11
2023-03-17T11:21:54.380Z,17.30
2023-03-17T11:22:54.363Z,17.54
2023-03-17T11:23:54.347Z,17.87
2023-03-17T11:24:54.335Z,18.00
2023-03-17T11:25:54.317Z,18.11
2023-03-17T11:26:54.327Z,18.25
2023-03-17T11:27:54.286Z,18.32
2023-03-17T11:28:54.286Z,18.37
2023-03-17T11:29:54.266Z,18.37
2023-03-17T11:30:54.257Z,18.32
2023-03-17T11:31:54.275Z,18.26
2023-03-17T11:32:54.244Z,18.30
2023-03-17T11:33:54.206Z,18.35
2023-03-17T11:34:54.205Z,18.33
2023-03-17T11:35:54.220Z,18.50
2023-03-17T11:36:56.482Z,18.42
2023-03-17T11:37:54.155Z,18.25
2023-03-17T11:38:54.162Z,18.23
2023-03-17T11:39:54.135Z,18.27
2023-03-17T11:40:54.126Z,18.29
2023-03-17T11:41:54.123Z,18.11
2023-03-17T11:42:55.356Z,18.12
2023-03-17T11:43:54.085Z,18.25
2023-03-17T11:44:54.073Z,18.36
2023-03-17T11:45:54.085Z,18.57
2023-03-17T11:46:54.056Z,18.80
2023-03-17T11:47:54.027Z,19.00
2023-03-17T11:48:54.017Z,19.16
2023-03-17T11:49:54.006Z,19.26
2023-03-17T11:50:54.006Z,19.37
2023-03-17T11:51:53.996Z,19.39
2023-03-17T11:52:53.969Z,19.26
2023-03-17T11:53:53.946Z,19.29
2023-03-17T11:54:55.967Z,19.31
2023-03-17T11:55:53.917Z,19.29
2023-03-17T11:56:53.926Z,19.33
2023-03-17T11:57:53.899Z,19.26
2023-03-17T11:58:53.885Z,19.18
2023-03-17T11:59:53.874Z,19.21
2023-03-17T12:00:53.857Z,19.29
2023-03-17T12:01:53.853Z,19.14
2023-03-17T12:02:53.832Z,19.11
2023-03-17T12:03:53.906Z,18.99
2023-03-17T12:04:53.802Z,18.73
2023-03-17T12:05:53.781Z,18.72
2023-03-17T12:06:55.409Z,18.87
2023-03-17T12:07:53.759Z,18.92
2023-03-17T12:08:53.744Z,18.91
2023-03-17T12:09:53.730Z,19.02
2023-03-17T12:10:53.724Z,19.04
2023-03-17T12:11:53.713Z,19.10
2023-03-17T12:12:53.700Z,19.13
2023-03-17T12:13:53.674Z,19.04
2023-03-17T12:14:53.671Z,18.99
2023-03-17T12:15:53.669Z,19.00
2023-03-17T12:16:53.666Z,19.29
2023-03-17T12:17:53.640Z,19.36
2023-03-17T12:18:53.611Z,19.44
2023-03-17T12:19:53.601Z,19.56
2023-03-17T12:20:53.662Z,19.71
2023-03-17T12:21:53.583Z,19.69
2023-03-17T12:22:55.169Z,19.91
2023-03-17T12:23:53.545Z,19.91
2023-03-17T12:24:53.536Z,19.94
2023-03-17T12:25:53.511Z,20.01
2023-03-17T12:26:53.521Z,20.08
2023-03-17T12:27:53.502Z,20.13
2023-03-17T12:28:54.221Z,20.17
2023-03-17T12:29:53.464Z,20.23
2023-03-17T12:30:53.481Z,20.14
2023-03-17T12:31:53.455Z,20.02
2023-03-17T12:32:53.478Z,20.05
2023-03-17T12:33:53.420Z,19.80
2023-03-17T12:34:55.018Z,19.59
2023-03-17T12:35:53.479Z,19.54
2023-03-17T12:36:53.393Z,19.58
2023-03-17T12:37:53.354Z,19.66
2023-03-17T12:38:53.350Z,19.73
2023-03-17T12:39:53.332Z,19.80
2023-03-17T12:40:53.322Z,19.86
2023-03-17T12:41:53.324Z,19.95
2023-03-17T12:42:53.301Z,20.01
2023-03-17T12:43:53.282Z,19.96
2023-03-17T12:44:53.273Z,19.87
2023-03-17T12:45:54.230Z,19.83
2023-03-17T12:46:53.252Z,19.83
2023-03-17T12:47:53.226Z,19.76
2023-03-17T12:48:53.222Z,19.81
2023-03-17T12:49:53.193Z,19.83
2023-03-17T12:50:53.185Z,19.88
2023-03-17T12:51:53.423Z,19.76
2023-03-17T12:52:53.161Z,19.77
2023-03-17T12:53:53.146Z,19.62
2023-03-17T12:54:53.131Z,19.39
2023-03-17T12:55:53.112Z,19.25
2023-03-17T12:56:53.122Z,19.25
2023-03-17T12:57:53.084Z,19.25
2023-03-17T12:58:53.073Z,19.18
2023-03-17T12:59:53.066Z,19.25
2023-03-17T13:00:53.053Z,19.18
2023-03-17T13:01:53.087Z,19.26
2023-03-17T13:02:53.079Z,19.32
2023-03-17T13:03:53.012Z,19.16
2023-03-17T13:04:53.001Z,19.06
2023-03-17T13:05:52.983Z,19.16
2023-03-17T13:06:52.985Z,19.25
2023-03-17T13:07:52.956Z,19.25